Bitter Lake, Washington
Current Conditions -  °F | °C
As of 6:53 PM on Wednesday 22 Oct 2014 (Local Time) from KPAE Reporting Station
Overcast Overcast  
Wind Chill: 54°   Ceiling: 5000
Heat Index: 54°   Visibility: 10mi
Dew Point: 50°   Wind: 12mph
Humidity: 86%   Direction: 150°SSE
Pressure: 29.56"   Gusts: 22mph
Location:  47.7424°N, 122.371°W
Report Text: KPAE 230153Z 15010G19KT 10SM SCT041 BKN050 OVC075 12/10 A2956 RMK AO2 RAE53 SLP011 P0003 T01220100
Loading
Personal Weather Stations






























Interactive Weather Map
Tropical Storm Tracking
New forecast layout! Learn more

10-Day Weather Forecast

Advertisements
Track Severe Weather on mobile